ADDS METAR Data INFO
IDs: Format: Raw Decoded Include TAF

Data at: 1257 UTC 14 Dec 2017

KWVI 141253Z AUTO 00000KT 10SM CLR 04/01 A3004 RMK AO2 SLP173 T00390006
KWVI 141153Z AUTO 28004KT 10SM CLR 05/01 A3005 RMK AO2 SLP175 T00500006 10083 20033 55000
KWVI 141053Z AUTO 00000KT 10SM CLR 05/01 A3004 RMK AO2 SLP172 T00500011
KWVI 140953Z AUTO 00000KT 10SM CLR 06/01 A3005 RMK AO2 SLP176 T00560011
KWVI 140853Z AUTO 30003KT 10SM CLR 06/02 A3005 RMK AO2 SLP175 T00610017 58001
KWVI 140753Z AUTO 00000KT 10SM CLR 07/02 A3006 RMK AO2 SLP178 T00670017 402110006
KWVI 140653Z AUTO 00000KT 10SM CLR 08/02 A3006 RMK AO2 SLP180 T00780022
KWVI 140553Z AUTO 31003KT 10SM CLR 08/03 A3005 RMK AO2 SLP176 T00830028 10183 20083 50002
KWVI 140453Z AUTO 31003KT 10SM CLR 09/03 A3006 RMK AO2 SLP179 T00890033
KWVI 140353Z AUTO 30004KT 10SM CLR 10/03 A3005 RMK AO2 SLP177 T01000033
KWVI 140253Z AUTO 00000KT 10SM CLR 10/04 A3005 RMK AO2 SLP175 T01000044 51006
KWVI 140153Z AUTO 00000KT 10SM CLR 12/04 A3004 RMK AO2 SLP173 T01220039
KWVI 140053Z AUTO 00000KT 10SM CLR 16/02 A3004 RMK AO2 SLP170 T01560022
KWVI 132353Z AUTO 23003KT 10SM CLR 18/03 A3003 RMK AO2 SLP168 T01780028 10211 20122 56010
KWVI 132253Z AUTO 26004KT 10SM CLR 21/03 A3003 RMK AO2 SLP168 T02060028
KWVI 132153Z AUTO VRB03KT 10SM CLR 21/02 A3003 RMK AO2 SLP169 T02110017
KWVI 132053Z AUTO 00000KT 10SM CLR 20/00 A3006 RMK AO2 SLP178 T02000000 58028
KWVI 131953Z AUTO 00000KT 10SM CLR 19/00 A3009 RMK AO2 SLP188 T01890000
KWVI 131853Z AUTO 07003KT 10SM CLR 16/00 A3012 RMK AO2 SLP199 T01560000
KWVI 131753Z AUTO 00000KT 10SM CLR 12/M01 A3014 RMK AO2 SLP206 T01221006 10122 20006 58001
KWVI 131653Z AUTO 00000KT 10SM CLR 08/M01 A3015 RMK AO2 SLP209 T00781006
KWVI 131553Z AUTO 00000KT 10SM CLR 04/M01 A3015 RMK AO2 SLP210 T00391011
KWVI 131453Z AUTO 30004KT 10SM CLR 02/M02 A3014 RMK AO2 SLP208 T00221017 55000
KWVI 131353Z AUTO 00000KT 10SM CLR 03/M01 A3014 RMK AO2 SLP208 T00281011
No TAF found for KWVI

KSNS 141253Z AUTO 08007KT 10SM CLR 03/M03 A3004 RMK AO2 SLP181 T00331033
KSNS 141153Z AUTO 10006KT 10SM CLR 05/M02 A3004 RMK AO2 SLP180 T00501022 10083 20033 56004
KSNS 141053Z AUTO 10008KT 10SM CLR 04/M03 A3004 RMK AO2 SLP181 T00391028
KSNS 140953Z AUTO 08007KT 10SM CLR 03/M01 A3004 RMK AO2 SLP182 T00331006
KSNS 140853Z AUTO 10003KT 10SM CLR 05/00 A3005 RMK AO2 SLP184 T00500000 51002
KSNS 140753Z AUTO 00000KT 10SM CLR 06/01 A3005 RMK AO2 SLP184 T00560006 402220022
KSNS 140653Z AUTO 07003KT 10SM CLR 05/02 A3006 RMK AO2 SLP187 T00500017
KSNS 140553Z AUTO 01005KT 10SM CLR 08/03 A3004 RMK AO2 SLP182 T00780033 10172 20067 50004
KSNS 140453Z AUTO 00000KT 10SM CLR 07/04 A3004 RMK AO2 SLP184 T00720039
KSNS 140353Z AUTO 00000KT 10SM CLR 09/04 A3003 RMK AO2 SLP179 T00890044
KSNS 140253Z 26004KT 10SM CLR 13/05 A3003 RMK AO2 SLP179 T01280050 52006
KSNS 140153Z 23011KT 10SM CLR 13/08 A3002 RMK AO2 SLP176 T01280078
KSNS 140053Z 26008KT 10SM CLR 16/06 A3002 RMK AO2 SLP174 T01560056
KSNS 132353Z 25013KT 10SM CLR 17/06 A3001 RMK AO2 SLP172 T01720061 10222 20100 55013
KSNS 132253Z 25011KT 10SM CLR 19/04 A3001 RMK AO2 SLP171 T01940039
KSNS 132153Z 00000KT 10SM CLR 21/M03 A3002 RMK AO2 SLP174 T02061033
KSNS 132053Z 20003KT 10SM CLR 19/M04 A3005 RMK AO2 SLP185 T01891039 58027
KSNS 131953Z 00000KT 10SM CLR 17/M03 A3008 RMK AO2 SLP195 T01671033
KSNS 131853Z 10010KT 9SM CLR 14/M03 A3011 RMK AO2 SLP205 T01391033
KSNS 131753Z 11010KT 10SM CLR 10/M04 A3013 RMK AO2 SLP213 T01001044 10100 20022 50001
KSNS 131653Z 10011KT 9SM CLR 06/M05 A3014 RMK AO2 SLP216 T00611050
KSNS 131553Z 11008KT 10SM CLR 04/M07 A3016 RMK AO2 SLP221 T00441067
KSNS 131453Z 11011KT 10SM CLR 03/M07 A3013 RMK AO2 SLP212 T00331067 58003
KSNS 131353Z AUTO 12009KT 10SM CLR 03/M06 A3014 RMK AO2 SLP216 T00281056

KSNS 141120Z 1412/1512 11008KT P6SM FEW200
  FM141700 11010KT P6SM SKC
  FM142300 30006KT P6SM SKC
  FM150400 VRB04KT P6SM SKC
  FM150700 12014KT P6SM SKC


KMRY 141254Z AUTO 08004KT 10SM CLR 08/M01 A3002 RMK AO2 SLP179 T00781011 TSNO
KMRY 141154Z AUTO 00000KT 10SM CLR 06/M01 A3002 RMK AO2 SLP178 T00611006 10089 20050 56009 TSNO
KMRY 141054Z AUTO 10006KT 10SM CLR 06/00 A3003 RMK AO2 SLP181 T00560000 TSNO
KMRY 140954Z AUTO 08004KT 10SM CLR 06/00 A3003 RMK AO2 SLP184 T00610000 TSNO
KMRY 140854Z AUTO 10005KT 10SM CLR 07/00 A3005 RMK AO2 SLP187 T00670000 58002 TSNO
KMRY 140754Z AUTO 09004KT 10SM CLR 08/01 A3005 RMK AO2 SLP187 T00780006 402220044 TSNO
KMRY 140654Z AUTO 10006KT 10SM CLR 08/01 A3006 RMK AO2 SLP190 T00830006 TSNO
KMRY 140554Z AUTO 09003KT 10SM CLR 09/01 A3005 RMK AO2 SLP189 T00890011 10167 20083 50003 TSNO
KMRY 140454Z AUTO 00000KT 10SM CLR 09/01 A3006 RMK AO2 SLP191 T00940011 TSNO
KMRY 140354Z 07005KT 10SM CLR 09/01 A3005 RMK AO2 SLP190 T00940011
KMRY 140254Z 10003KT 10SM CLR 09/04 A3004 RMK AO2 SLP187 T00940044 50004
KMRY 140154Z 13004KT 10SM CLR 11/04 A3005 RMK AO2 SLP188 T01060044
KMRY 140054Z 30003KT 10SM CLR 14/07 A3004 RMK AO2 SLP185 T01390072
KMRY 132354Z 09003KT 10SM CLR 16/04 A3003 RMK AO2 SLP182 T01610044 10222 20144 56006
KMRY 132254Z 31005KT 10SM CLR 16/04 A3005 RMK AO2 SLP186 T01610039
KMRY 132154Z 31004KT 10SM CLR 16/06 A3004 RMK AO2 SLP184 T01560056
KMRY 132054Z 05004KT 10SM CLR 22/M03 A3005 RMK AO2 SLP188 T02221028 58022
KMRY 131954Z 26004KT 10SM CLR 18/02 A3008 RMK AO2 SLP197 T01780017
KMRY 131854Z 22008KT 10SM CLR 14/03 A3011 RMK AO2 SLP209 T01440028
KMRY 131754Z 27003KT 10SM CLR 16/M02 A3012 RMK AO2 SLP210 T01611022 10167 20044 58002
KMRY 131654Z 08004KT 10SM CLR 12/M05 A3012 RMK AO2 SLP212 T01221050
KMRY 131554Z 14005KT 10SM CLR 07/M07 A3013 RMK AO2 SLP216 T00671067
KMRY 131454Z 09007KT 10SM CLR 07/M07 A3012 RMK AO2 SLP214 T00671072 51001
KMRY 131354Z AUTO 09013KT 10SM CLR 08/M07 A3012 RMK AO2 SLP212 T00831072 TSNO

KMRY 141120Z 1412/1512 11005KT P6SM FEW200
  FM141500 VRB04KT P6SM FEW200
  FM142000 31005KT P6SM SKC
  FM150400 10004KT P6SM SKC


KSJC 141253Z AUTO 00000KT 10SM CLR 05/02 A3006 RMK AO2 SLP178 T00500017
KSJC 141153Z AUTO 12003KT 10SM CLR 05/02 A3006 RMK AO2 SLP178 T00500017 10094 20044 58003
KSJC 141053Z AUTO 15003KT 10SM CLR 05/02 A3006 RMK AO2 SLP179 T00500022
KSJC 140953Z AUTO 00000KT 10SM CLR 06/03 A3007 RMK AO2 SLP182 T00610028
KSJC 140853Z AUTO 13003KT 10SM CLR 06/03 A3007 RMK AO2 SLP181 T00610028 58004
KSJC 140753Z COR 00000KT 10SM FEW004 07/03 A3008 RMK AO2 SLP184 FU FEW004 LAST T00720028 401830017
KSJC 140653Z 00000KT 10SM FEW005 08/03 A3008 RMK AO2 SLP186 FU FEW005 T00830028
KSJC 140553Z 00000KT 10SM FEW006 FEW110 09/03 A3008 RMK AO2 SLP185 FU FEW006 T00940033 10172 20089 51004
KSJC 140453Z 00000KT 10SM FEW006 FEW120 10/04 A3008 RMK AO2 SLP184 HZ FEW006 T01000039
KSJC 140353Z 00000KT 10SM FEW008 FEW120 11/04 A3007 RMK AO2 SLP183 HZ FEW008 T01110044
KSJC 140253Z 00000KT 9SM FEW010 12/04 A3007 RMK AO2 SLP181 FU FEW010 T01170044 55001
KSJC 140153Z 33003KT 10SM FEW017 FEW040 BKN120 14/04 A3006 RMK AO2 SLP180 FU FEW017 FU FEW040 T01390039
KSJC 140053Z 32003KT 10SM FEW017 FEW040 BKN120 16/03 A3007 RMK AO2 SLP181 FU FEW017 FU FEW040 T01560033
KSJC 132353Z 32007KT 10SM FEW017 FEW040 SCT100 17/02 A3007 RMK AO2 SLP182 FU FEW017 FU FEW040 T01720017 10183 20100 56010
KSJC 132253Z 34005KT 10SM FEW017 FEW040 BKN100 18/02 A3007 RMK AO2 SLP182 FU FEW017 FU FEW040 T01780017
KSJC 132153Z 32003KT 10SM FEW017 FEW040 BKN100 18/02 A3008 RMK AO2 SLP184 FU FEW017 FU FEW040 T01780017
KSJC 132053Z 33003KT 10SM FEW017 FEW040 BKN100 16/02 A3010 RMK AO2 SLP192 FU FEW017 FU FEW040 T01610022 58025
KSJC 131953Z 31006KT 10SM FEW013 SCT040 BKN100 14/03 A3013 RMK AO2 SLP202 FU FEW013 FU SCT040 T01440028
KSJC 131853Z VRB03KT 10SM FEW011 SCT034 SCT100 12/04 A3016 RMK AO2 SLP212 FU FEW011 FU SCT034 T01220044
KSJC 131753Z 22005KT 10SM FEW006 SCT034 SCT100 10/03 A3017 RMK AO2 SLP217 FU FEW006 FU SCT034 T01000033 10100 20017 56005
KSJC 131653Z 02003KT 10SM FEW006 SCT030 SCT100 08/01 A3018 RMK AO2 SLP218 FU FEW006 FU SCT030 T00780011
KSJC 131553Z COR 08004KT 10SM FEW004 SCT030 SCT100 04/01 A3017 RMK AO2 SLP215 FU FEW004 FU SCT030 T00390006
KSJC 131453Z 20003KT 10SM FEW030 FEW110 03/M01 A3019 RMK AO2 SLP222 FU FEW030 T00281006 53004
KSJC 131353Z 00000KT 10SM CLR 04/01 A3017 RMK AO2 SLP215 T00390006

KSJC 141120Z 1412/1512 VRB03KT P6SM FEW200
  FM142100 31007KT P6SM SKC
  FM150400 VRB03KT P6SM FEW200


KSFO 141156Z 26003KT 10SM FEW200 07/04 A3005 RMK AO2 SLP176 T00670039 10111 20067 58006
KSFO 141056Z 00000KT 10SM FEW200 08/04 A3006 RMK AO2 SLP179 T00780044
KSFO 140956Z 19003KT 10SM FEW200 08/04 A3006 RMK AO2 SLP180 T00780039
KSFO 140856Z 00000KT 10SM FEW170 SCT200 10/06 A3007 RMK AO2 SLP181 T01000061 58002
KSFO 140756Z 25003KT 10SM FEW170 SCT200 10/06 A3007 RMK AO2 SLP182 T01000061 401610050
KSFO 140656Z 28003KT 8SM SCT200 11/09 A3008 RMK AO2 SLP184 T01060094
KSFO 140556Z 29007KT 10SM FEW200 11/09 A3007 RMK AO2 SLP183 T01110094 10144 20111 51003
KSFO 140456Z 30010KT 10SM FEW200 12/09 A3007 RMK AO2 SLP183 T01170094
KSFO 140356Z 29010KT 10SM FEW200 12/09 A3007 RMK AO2 SLP183 T01170089
KSFO 140256Z 28010KT 10SM CLR 12/07 A3007 RMK AO2 SLP181 T01220072 56001
KSFO 140156Z 29009KT 10SM FEW200 13/03 A3007 RMK AO2 SLP182 T01280028
KSFO 140056Z 00000KT 10SM SCT200 14/07 A3006 RMK AO2 SLP179 T01390072
KSFO 132356Z 00000KT 10SM SCT200 14/07 A3007 RMK AO2 SLP182 T01440067 10161 20111 56012
KSFO 132256Z 06003KT 10SM SCT200 14/09 A3007 RMK AO2 SLP182 T01440089
KSFO 132156Z 00000KT 10SM BKN200 15/07 A3008 RMK AO2 SLP186 T01500067
KSFO 132056Z 00000KT 9SM BKN200 13/08 A3010 RMK AO2 SLP194 T01330078 58024
KSFO 131956Z 00000KT 10SM BKN200 12/07 A3013 RMK AO2 SLP201 T01220072
KSFO 131856Z 07003KT 10SM FEW200 12/07 A3016 RMK AO2 SLP214 T01170067
KSFO 131756Z 00000KT 10SM FEW200 12/07 A3018 RMK AO2 SLP218 T01170067 10117 20056 50004
KSFO 131656Z 02006KT 10SM FEW200 11/07 A3018 RMK AO2 SLP218 T01060072
KSFO 131556Z 00000KT 10SM FEW200 08/06 A3017 RMK AO2 SLP215 T00830061
KSFO 131456Z 16006KT 10SM FEW200 08/06 A3016 RMK AO2 SLP214 T00830056 58001
KSFO 131356Z 36006KT 10SM FEW200 10/06 A3018 RMK AO2 SLP218 T01000061

KSFO 141120Z 1412/1518 VRB03KT P6SM FEW200
  FM150000 30009KT P6SM SKC
  FM150400 VRB04KT P6SM FEW250
  FM150900 VRB03KT P6SM SCT250


KHAF 141255Z AUTO 32005KT 3SM BR SCT002 09/07 A3001 RMK AO2
KHAF 141235Z AUTO 31005KT 7SM FEW002 07/03 A3000 RMK AO2
KHAF 141215Z AUTO 00000KT 7SM SCT003 08/03 A3001 RMK AO2
KHAF 141155Z AUTO 14004KT 9SM FEW003 08/02 A3001 RMK AO2
KHAF 141135Z AUTO 00000KT 10SM CLR 07/02 A3001 RMK AO2
KHAF 141115Z AUTO 00000KT 9SM CLR 09/03 A3001 RMK AO2
KHAF 141055Z AUTO 03006KT 9SM CLR 09/03 A3001 RMK AO2
KHAF 141035Z AUTO 30003KT 9SM BKN002 07/03 A3001 RMK AO2
KHAF 141015Z AUTO 33004KT 7SM OVC002 07/04 A3002 RMK AO2
KHAF 140955Z AUTO 00000KT 7SM OVC002 07/04 A3002 RMK AO2
KHAF 140935Z AUTO 33004KT 4SM BR OVC002 09/08 A3002 RMK AO2
KHAF 140915Z AUTO 33004KT 5SM BR OVC003 09/08 A3002 RMK AO2
KHAF 140855Z AUTO 35005KT 5SM BR OVC002 09/08 A3003 RMK AO2
KHAF 140835Z AUTO 35005KT 5SM BR BKN002 10/09 A3003 RMK AO2
KHAF 140815Z AUTO 35008KT 5SM BR SCT002 10/10 A3003 RMK AO2
KHAF 140755Z AUTO 34009KT 5SM BR OVC002 10/09 A3004 RMK AO2
KHAF 140735Z AUTO 34007KT 5SM BR OVC002 10/09 A3004 RMK AO2
KHAF 140715Z AUTO 35009KT 5SM BR OVC003 11/10 A3004 RMK AO2
KHAF 140655Z AUTO 35008KT 5SM BR OVC003 10/09 A3004 RMK AO2
KHAF 140635Z AUTO 01007KT 5SM BR OVC003 09/08 A3004 RMK AO2
KHAF 140615Z AUTO 34008KT 5SM BR OVC003 11/10 A3004 RMK AO2
KHAF 140555Z AUTO 35006KT 5SM BR OVC003 11/10 A3004 RMK AO2
KHAF 140535Z AUTO 36006KT 6SM BR OVC003 10/09 A3005 RMK AO2
KHAF 140515Z AUTO 35006KT 5SM BR OVC003 11/10 A3005 RMK AO2
KHAF 140455Z AUTO 35009KT 5SM BR OVC003 12/10 A3004 RMK AO2
KHAF 140435Z AUTO 34011KT 6SM BR OVC003 12/10 A3005 RMK AO2
KHAF 140415Z AUTO 34012G15KT 6SM BR OVC003 12/10 A3005 RMK AO2
KHAF 140355Z AUTO 34011G17KT 6SM BR OVC003 12/10 A3004 RMK AO2
KHAF 140335Z AUTO 34013KT 7SM OVC003 12/09 A3004 RMK AO2
KHAF 140315Z AUTO 34013G18KT 7SM BKN003 OVC045 12/09 A3004 RMK AO2
KHAF 140255Z AUTO 34011G16KT 7SM BKN003 OVC039 12/08 A3003 RMK AO2
KHAF 140235Z AUTO 34011KT 7SM BKN003 OVC039 12/07 A3003 RMK AO2
KHAF 140215Z AUTO 34010KT 8SM BKN003 OVC043 12/07 A3003 RMK AO2
KHAF 140155Z AUTO 35009G14KT 9SM SCT003 OVC043 13/03 A3004 RMK AO2
KHAF 140135Z AUTO 34009KT 10SM FEW003 OVC043 13/03 A3003 RMK AO2
KHAF 140115Z AUTO 33010KT 7SM SCT043 12/05 A3003 RMK AO2
KHAF 140055Z AUTO 34011KT 7SM CLR 13/05 A3003 RMK AO2
KHAF 140035Z AUTO 33014KT A3003 RMK AO2
KHAF 140015Z AUTO 33014KT 8SM CLR 14/06 A3003 RMK AO2
KHAF 132355Z AUTO 34011KT 9SM CLR 14/05 A3003 RMK AO2
KHAF 132335Z AUTO 34011G15KT 9SM CLR 15/04 A3003 RMK AO2
KHAF 132315Z AUTO 32010KT 9SM CLR 16/05 A3003 RMK AO2
KHAF 132255Z AUTO 31006KT 8SM CLR 18/03 A3003 RMK AO2
KHAF 132235Z AUTO 31007KT 8SM CLR 17/04 A3003 RMK AO2
KHAF 132215Z AUTO 06008KT 10SM CLR 19/M03 A3003 RMK AO2
KHAF 132155Z AUTO 07016G20KT 10SM CLR 19/M03 A3004 RMK AO2
KHAF 132135Z AUTO 04013G18KT 10SM CLR 19/M02 A3004 RMK AO2
KHAF 132115Z AUTO 04013G17KT 10SM CLR 20/M03 A3004 RMK AO2
KHAF 132055Z AUTO 04013G21KT 10SM CLR 19/M03 A3004 RMK AO2
KHAF 132035Z AUTO 03010G17KT 350V050 10SM CLR 19/M03 A3005 RMK AO2
KHAF 132015Z AUTO 32004KT 9SM CLR 19/M01 A3005 RMK AO2
KHAF 131955Z AUTO 06008KT 10SM CLR 18/M01 A3007 RMK AO2
KHAF 131935Z AUTO 05015G19KT 10SM CLR 18/00 A3008 RMK AO2
KHAF 131915Z AUTO 04008KT 10SM CLR 18/M01 A3009 RMK AO2
KHAF 131855Z AUTO 00000KT 10SM A3010 RMK AO2
KHAF 131835Z AUTO 13006KT 9SM CLR 17/04 A3011 RMK AO2
KHAF 131815Z AUTO 33004KT 9SM CLR 18/00 A3011 RMK AO2
KHAF 131755Z AUTO 25007KT 8SM CLR 16/03 A3011 RMK AO2
KHAF 131735Z AUTO 24003KT 8SM CLR 18/00 A3011 RMK AO2
KHAF 131715Z AUTO 01003KT 10SM CLR 18/M04 A3011 RMK AO2
KHAF 131655Z AUTO 27003KT 7SM CLR 14/02 A3011 RMK AO2
KHAF 131635Z AUTO 13006KT 10SM CLR 17/M04 A3011 RMK AO2
KHAF 131615Z AUTO 36007KT 8SM FEW037 14/00 A3011 RMK AO2
KHAF 131555Z AUTO 32008KT 5SM HZ FEW037 11/05 A3011 RMK AO2
KHAF 131535Z AUTO 32004KT 10SM FEW039 10/M03 A3009 RMK AO2
KHAF 131515Z AUTO 27005KT 8SM BKN039 05/M01 A3009 RMK AO2
KHAF 131455Z AUTO 04003KT 10SM OVC039 04/M02 A3009 RMK AO2
KHAF 131435Z AUTO 13003KT 8SM OVC044 03/M02 A3010 RMK AO2
KHAF 131415Z AUTO 00000KT 9SM FEW002 OVC044 03/M01 A3011 RMK AO2
KHAF 131355Z AUTO 32003KT 10SM BKN002 OVC044 04/M02 A3011 RMK AO2
KHAF 131335Z AUTO 00000KT 10SM BKN002 OVC042 06/M03 A3011 RMK AO2
KHAF 131315Z AUTO 00000KT 10SM SCT002 OVC042 04/M02 A3011 RMK AO2
No TAF found for KHAF